Time;durP1;ratioP1;P1;durP2;ratioP2;P2;SDS_P1;SDS_P2;PMS_P1;PMS_P2;Temp;Humidity;BMP_temperature;BMP_pressure;BME280_temperature;BME280_humidity;BME280_pressure;Samples;Min_cycle;Max_cycle;Signal;HPM_P1;HPM_P2
2021/09/26 00:00:20;;;;;;;6.28;5.68;;;;;;;24.73;47.63;95584.09;4990444;28;20038;-72
2021/09/26 00:02:45;;;;;;;7.03;6.40;;;;;;;24.86;47.64;95602.41;4990480;28;20045;-72
2021/09/26 00:05:12;;;;;;;7.05;6.45;;;;;;;24.91;47.36;95603.97;4992845;28;20027;-72
2021/09/26 00:07:39;;;;;;;6.72;6.20;;;;;;;24.85;47.63;95592.69;4990315;28;20046;-72
2021/09/26 00:10:06;;;;;;;6.68;6.07;;;;;;;24.88;47.56;95600.09;4989984;28;20069;-72
2021/09/26 00:12:32;;;;;;;6.93;6.40;;;;;;;24.88;47.38;95600.09;4992982;28;20046;-72
2021/09/26 00:14:58;;;;;;;5.45;5.05;;;;;;;24.78;47.16;95605.50;5010029;28;20037;-72
2021/09/26 00:17:24;;;;;;;5.78;5.20;;;;;;;24.70;47.45;95610.13;5008698;28;20025;-72
2021/09/26 00:19:49;;;;;;;5.30;4.88;;;;;;;24.75;47.27;95614.41;5011368;28;20084;-72
2021/09/26 00:22:15;;;;;;;5.03;4.53;;;;;;;24.76;47.20;95608.59;4999816;28;20050;-72
2021/09/26 00:24:40;;;;;;;5.28;4.88;;;;;;;24.74;46.94;95604.69;4989642;28;20584;-72
2021/09/26 00:27:09;;;;;;;4.82;4.43;;;;;;;24.79;47.17;95607.06;4998434;28;20567;-71
2021/09/26 00:29:35;;;;;;;5.15;4.75;;;;;;;24.80;46.90;95609.38;5009296;28;20073;-73
2021/09/26 00:32:01;;;;;;;5.10;4.60;;;;;;;24.81;46.88;95600.03;5011680;28;20432;-72
2021/09/26 00:34:27;;;;;;;5.18;4.80;;;;;;;24.83;46.81;95603.19;5009150;28;20030;-72
2021/09/26 00:36:52;;;;;;;5.20;4.70;;;;;;;24.81;46.75;95600.03;5004359;28;20031;-72
2021/09/26 00:39:17;;;;;;;5.20;4.70;;;;;;;24.84;46.76;95607.44;4987770;28;20061;-72
2021/09/26 00:41:43;;;;;;;5.13;4.68;;;;;;;24.83;46.67;95596.97;4989576;28;20047;-72
2021/09/26 00:44:08;;;;;;;4.65;4.35;;;;;;;24.84;46.59;95603.97;4991257;28;20026;-72
2021/09/26 00:46:34;;;;;;;5.60;4.78;;;;;;;24.86;46.48;95607.06;5007245;28;20092;-72
2021/09/26 00:48:59;;;;;;;4.95;4.55;;;;;;;24.79;46.80;95605.09;5008824;28;20092;-72
2021/09/26 00:51:24;;;;;;;4.90;4.43;;;;;;;24.76;46.65;95603.13;5008368;28;20053;-72
2021/09/26 00:53:50;;;;;;;4.82;4.50;;;;;;;24.83;46.58;95600.47;4988995;28;20042;-72
2021/09/26 00:56:15;;;;;;;5.22;4.82;;;;;;;24.76;46.49;95589.53;4989225;28;20472;-72
2021/09/26 00:58:41;;;;;;;4.97;4.60;;;;;;;24.82;46.67;95593.44;4990127;28;20022;-72
2021/09/26 01:01:07;;;;;;;4.80;4.35;;;;;;;24.80;46.54;95593.06;5004730;28;20040;-72
2021/09/26 01:03:32;;;;;;;4.82;4.43;;;;;;;24.77;46.60;95591.13;5008773;28;20069;-72
2021/09/26 01:06:09;;;;;;;4.90;4.47;;;;;;;24.77;46.56;95585.69;5007768;28;20539;-71
2021/09/26 01:08:45;;;;;;;5.38;4.40;;;;;;;24.80;46.68;95595.78;4988208;28;20035;-72
2021/09/26 01:11:21;;;;;;;5.20;4.78;;;;;;;24.75;46.56;95585.25;4971475;28;20117;-72
2021/09/26 01:13:58;;;;;;;5.07;4.68;;;;;;;24.78;46.63;95592.66;4993939;28;20057;-73
2021/09/26 01:16:28;;;;;;;4.93;4.53;;;;;;;24.77;46.54;95593.84;4989107;28;20133;-71
2021/09/26 01:21:32;;;;;;;5.50;4.47;;;;;;;24.79;46.77;95590.72;4967170;28;20043;-68
2021/09/26 01:24:19;;;;;;;5.15;4.72;;;;;;;24.86;46.86;95599.66;4979779;28;20038;-68
2021/09/26 01:27:09;;;;;;;4.97;4.10;;;;;;;24.85;46.71;95597.34;4963301;28;20046;-67
2021/09/26 01:30:18;;;;;;;5.03;4.70;;;;;;;24.82;46.59;95607.03;4969052;28;20023;-68
2021/09/26 01:33:10;;;;;;;5.13;4.40;;;;;;;24.75;46.90;95612.47;4976710;28;20035;-68
2021/09/26 01:35:46;;;;;;;4.80;4.50;;;;;;;24.69;47.02;95605.06;4968055;28;20177;-68
2021/09/26 01:38:24;;;;;;;5.55;5.10;;;;;;;24.75;47.11;95598.88;4969138;28;20039;-68
2021/09/26 01:40:54;;;;;;;4.95;4.55;;;;;;;24.67;46.99;95589.16;4969086;28;20039;-69
2021/09/26 01:43:28;;;;;;;4.95;4.40;;;;;;;24.77;47.27;95604.72;4967330;28;20046;-68
2021/09/26 01:45:57;;;;;;;7.05;4.78;;;;;;;24.76;47.02;95602.38;4969195;28;20066;-68
2021/09/26 01:48:26;;;;;;;5.15;4.65;;;;;;;24.82;47.00;95617.91;4969084;28;20118;-67
2021/09/26 01:50:58;;;;;;;6.03;5.32;;;;;;;24.82;47.13;95617.16;4968570;28;20039;-68
2021/09/26 01:53:26;;;;;;;4.97;4.43;;;;;;;24.79;47.31;95618.72;4968053;28;20046;-68
2021/09/26 01:55:52;;;;;;;5.03;4.63;;;;;;;24.72;47.44;95604.28;4970702;28;20069;-68
2021/09/26 01:58:20;;;;;;;5.43;4.97;;;;;;;24.72;47.37;95596.94;4968584;28;20126;-68
2021/09/26 02:00:47;;;;;;;4.93;4.63;;;;;;;24.83;47.35;95614.06;4983400;28;20046;-68
2021/09/26 02:03:17;;;;;;;5.38;4.97;;;;;;;24.81;47.58;95616.38;4968649;28;20559;-67
2021/09/26 02:05:44;;;;;;;5.57;5.07;;;;;;;24.77;47.54;95612.88;4966893;28;20456;-68
2021/09/26 02:08:10;;;;;;;5.40;4.93;;;;;;;24.74;47.43;95600.03;4967911;28;20030;-68
2021/09/26 02:10:37;;;;;;;5.32;4.93;;;;;;;24.85;47.36;95602.78;4967900;28;20055;-68
2021/09/26 02:13:05;;;;;;;5.53;5.13;;;;;;;24.83;47.61;95611.34;4968422;28;20390;-67
2021/09/26 02:15:32;;;;;;;5.90;5.40;;;;;;;24.80;47.53;95605.88;4968723;28;20047;-68
2021/09/26 02:18:01;;;;;;;5.82;5.40;;;;;;;24.78;47.69;95606.28;4968573;28;20041;-68
2021/09/26 02:20:27;;;;;;;6.30;5.80;;;;;;;24.68;47.44;95593.41;4968177;28;20030;-70
2021/09/26 02:22:53;;;;;;;7.53;5.25;;;;;;;24.72;47.51;95596.94;4970005;28;20496;-72
2021/09/26 02:25:21;;;;;;;7.90;5.15;;;;;;;24.83;47.59;95616.78;4966944;28;20138;-71
2021/09/26 02:27:47;;;;;;;5.30;4.90;;;;;;;24.80;47.75;95595.78;4968538;28;20102;-71
2021/09/26 02:30:14;;;;;;;5.40;5.00;;;;;;;24.79;47.55;95601.59;4967062;28;20039;-71
2021/09/26 02:32:41;;;;;;;5.43;5.00;;;;;;;24.82;47.63;95601.59;4966805;28;20035;-71
2021/09/26 02:35:07;;;;;;;5.97;5.35;;;;;;;24.67;47.66;95582.91;4970557;28;20121;-71
2021/09/26 02:37:33;;;;;;;5.63;5.25;;;;;;;24.67;47.96;95597.31;4968152;28;20035;-71
2021/09/26 02:40:00;;;;;;;6.18;5.60;;;;;;;24.31;47.81;95550.09;4982888;28;20046;-72
2021/09/26 02:42:32;;;;;;;5.90;5.40;;;;;;;24.54;48.25;95593.34;4968394;28;20043;-70
2021/09/26 02:45:19;;;;;;;5.97;5.43;;;;;;;24.50;48.33;95592.56;4968328;28;20496;-71
2021/09/26 02:48:04;;;;;;;6.05;5.55;;;;;;;24.36;48.67;95582.41;4968490;28;20051;-71
2021/09/26 02:50:30;;;;;;;5.85;5.38;;;;;;;24.36;48.51;95580.47;4968287;28;20033;-71
2021/09/26 02:52:56;;;;;;;5.40;4.88;;;;;;;24.49;48.42;95585.56;4969870;28;20916;-71
2021/09/26 02:55:24;;;;;;;6.45;5.97;;;;;;;24.38;48.56;95589.03;4968310;28;20050;-71
2021/09/26 02:57:49;;;;;;;6.60;5.68;;;;;;;24.38;48.56;95589.03;4968633;28;20560;-71
2021/09/26 03:00:15;;;;;;;6.03;5.53;;;;;;;24.47;48.53;95594.13;4968050;28;20051;-70
2021/09/26 03:02:41;;;;;;;5.70;5.30;;;;;;;24.41;48.56;95583.97;4968170;28;20046;-70
2021/09/26 03:05:08;;;;;;;6.70;5.80;;;;;;;24.35;48.59;95573.47;4985450;28;20489;-71
2021/09/26 03:07:33;;;;;;;5.75;5.28;;;;;;;24.35;48.85;95578.91;4967996;28;20035;-70
2021/09/26 03:09:59;;;;;;;5.72;5.22;;;;;;;24.42;48.57;95593.72;4967704;28;20027;-71
2021/09/26 03:12:25;;;;;;;5.80;5.30;;;;;;;24.30;48.92;95592.81;4968313;28;20039;-71
2021/09/26 03:14:51;;;;;;;5.15;4.85;;;;;;;24.29;49.17;95596.72;4968323;28;20034;-71
2021/09/26 03:17:17;;;;;;;7.85;5.18;;;;;;;24.29;48.88;95591.28;4968283;28;20540;-71
2021/09/26 03:19:43;;;;;;;6.00;5.50;;;;;;;24.23;49.15;95573.78;4969722;28;20035;-71
2021/09/26 03:22:09;;;;;;;6.18;5.68;;;;;;;24.30;48.99;95590.09;4970018;28;20493;-71
2021/09/26 03:24:36;;;;;;;5.72;5.00;;;;;;;24.20;48.74;95576.47;4971205;28;20050;-71
2021/09/26 03:27:03;;;;;;;5.65;5.15;;;;;;;24.20;48.47;95579.97;4971756;28;20166;-71
2021/09/26 03:29:32;;;;;;;5.45;5.05;;;;;;;24.19;48.92;95578.41;4971387;28;20023;-70
2021/09/26 03:31:59;;;;;;;5.45;4.88;;;;;;;24.13;49.06;95574.50;4973574;28;20464;-70
2021/09/26 03:34:25;;;;;;;5.70;5.20;;;;;;;24.05;48.77;95570.94;4971270;28;20043;-70
2021/09/26 03:36:53;;;;;;;5.57;5.00;;;;;;;23.89;49.04;95567.75;4971701;28;20093;-70
2021/09/26 03:39:18;;;;;;;6.32;5.63;;;;;;;23.72;49.22;95563.00;4970395;28;20556;-71
2021/09/26 03:41:43;;;;;;;5.97;5.43;;;;;;;23.67;49.82;95569.56;4985145;28;20035;-72
2021/09/26 03:44:09;;;;;;;6.32;5.75;;;;;;;23.37;49.93;95522.78;4972563;28;20417;-71
2021/09/26 03:46:34;;;;;;;6.85;5.10;;;;;;;23.59;49.87;95554.34;4986453;28;20043;-71
2021/09/26 03:49:00;;;;;;;8.45;5.78;;;;;;;23.59;49.77;95543.47;4970955;28;20035;-71
2021/09/26 03:51:26;;;;;;;8.35;6.60;;;;;;;23.55;49.90;95556.28;4971146;28;20051;-71
2021/09/26 03:53:51;;;;;;;6.18;5.68;;;;;;;23.42;50.09;95544.16;4969917;28;20038;-71
2021/09/26 03:56:16;;;;;;;6.20;5.63;;;;;;;23.42;50.34;95546.84;4970846;28;20035;-72
2021/09/26 03:58:42;;;;;;;8.32;5.75;;;;;;;23.35;50.21;95534.03;4972527;28;20025;-71
2021/09/26 04:01:07;;;;;;;5.25;4.85;;;;;;;23.42;49.94;95549.56;4970961;28;20039;-70
2021/09/26 04:03:33;;;;;;;5.88;5.32;;;;;;;23.23;50.72;95537.78;4970859;28;20039;-70
2021/09/26 04:05:58;;;;;;;8.30;5.38;;;;;;;23.27;50.40;95549.44;4985919;28;20440;-70
2021/09/26 04:08:23;;;;;;;6.40;5.40;;;;;;;23.20;50.55;95540.50;4970351;28;20049;-71
2021/09/26 04:10:49;;;;;;;6.53;5.93;;;;;;;23.21;50.25;95548.25;4972186;28;20022;-72
2021/09/26 04:13:14;;;;;;;6.18;5.60;;;;;;;23.02;50.37;95534.91;4970511;28;20049;-71
2021/09/26 04:15:40;;;;;;;7.97;5.22;;;;;;;23.07;50.86;95550.84;4969540;28;20031;-71
2021/09/26 04:18:05;;;;;;;6.20;5.60;;;;;;;22.93;50.86;95534.41;4971787;28;20038;-72
2021/09/26 04:20:30;;;;;;;7.18;6.47;;;;;;;22.79;50.97;95526.91;4971020;28;20050;-71
2021/09/26 04:22:56;;;;;;;6.15;5.50;;;;;;;22.80;51.21;95540.09;4972853;28;20376;-70
2021/09/26 04:25:21;;;;;;;6.68;6.07;;;;;;;22.79;51.22;95543.19;4969837;28;20046;-71
2021/09/26 04:27:47;;;;;;;8.95;5.85;;;;;;;22.61;51.12;95529.44;4970283;28;20043;-71
2021/09/26 04:30:13;;;;;;;7.20;6.32;;;;;;;22.72;51.52;95540.38;4970066;28;20034;-70
2021/09/26 04:32:39;;;;;;;6.57;6.00;;;;;;;22.56;51.33;95524.34;4969333;28;20047;-70
2021/09/26 04:35:05;;;;;;;6.40;5.90;;;;;;;22.58;51.85;95532.91;4971979;28;20030;-70
2021/09/26 04:37:30;;;;;;;8.50;5.95;;;;;;;22.55;52.04;95528.22;4969949;28;20039;-70
2021/09/26 04:39:56;;;;;;;6.00;5.57;;;;;;;22.53;51.72;95523.16;4969705;28;20125;-70
2021/09/26 04:42:21;;;;;;;5.85;5.32;;;;;;;22.53;51.65;95516.97;4969730;28;20054;-71
2021/09/26 04:44:47;;;;;;;7.95;6.28;;;;;;;22.60;51.51;95522.47;4968544;28;20035;-71
2021/09/26 04:47:12;;;;;;;6.20;5.70;;;;;;;22.62;51.64;95527.50;4972134;28;20026;-71
2021/09/26 04:49:38;;;;;;;6.65;6.00;;;;;;;22.48;51.95;95506.47;4969571;28;20580;-71
2021/09/26 04:52:03;;;;;;;6.80;6.22;;;;;;;22.52;51.85;95520.81;4970129;28;20126;-71
2021/09/26 04:54:29;;;;;;;6.18;5.57;;;;;;;22.39;51.81;95503.25;4969073;28;20035;-70
2021/09/26 04:56:54;;;;;;;6.88;6.22;;;;;;;22.43;51.82;95521.13;4969848;28;20047;-70
2021/09/26 04:59:21;;;;;;;7.68;6.97;;;;;;;22.41;52.10;95520.69;4969502;28;20393;-71
2021/09/26 05:01:47;;;;;;;6.45;5.85;;;;;;;22.41;52.21;95515.28;4970437;28;20034;-70
2021/09/26 05:04:12;;;;;;;5.97;5.00;;;;;;;22.33;52.24;95497.41;4969564;28;20039;-70
2021/09/26 05:06:38;;;;;;;6.43;5.82;;;;;;;22.39;52.24;95511.38;4984278;28;20030;-71
2021/09/26 05:09:03;;;;;;;6.60;5.97;;;;;;;22.27;52.20;95494.25;4968313;28;20512;-71
2021/09/26 05:11:29;;;;;;;6.90;6.30;;;;;;;22.29;52.00;95500.06;4969323;28;20113;-70
2021/09/26 05:13:55;;;;;;;6.93;6.32;;;;;;;22.35;52.06;95510.56;4971028;28;20491;-71
2021/09/26 05:16:20;;;;;;;9.20;5.97;;;;;;;22.34;52.09;95520.63;4968481;28;20058;-71
2021/09/26 05:18:45;;;;;;;6.53;5.95;;;;;;;22.25;52.11;95510.06;4968917;28;20550;-71
2021/09/26 05:21:11;;;;;;;6.13;5.53;;;;;;;22.43;51.99;95531.19;4969354;28;20043;-70
2021/09/26 05:23:36;;;;;;;7.45;6.78;;;;;;;22.36;52.07;95506.69;4968631;28;20130;-70
2021/09/26 05:26:06;;;;;;;8.80;6.47;;;;;;;22.56;51.91;95529.75;4971134;28;20022;-70
2021/09/26 05:28:32;;;;;;;5.50;5.00;;;;;;;22.69;52.18;95533.78;4969012;28;20039;-70
2021/09/26 05:30:59;;;;;;;5.03;4.65;;;;;;;22.82;51.82;95534.28;4969064;28;20125;-70
2021/09/26 05:33:25;;;;;;;6.60;5.20;;;;;;;22.96;51.46;95528.25;4969014;28;20543;-70
2021/09/26 05:35:51;;;;;;;5.68;5.10;;;;;;;23.15;50.77;95528.03;4969260;28;20043;-71
2021/09/26 05:38:18;;;;;;;9.02;4.68;;;;;;;23.31;50.53;95530.50;4968839;28;20034;-71
2021/09/26 05:40:43;;;;;;;5.40;4.93;;;;;;;23.49;50.32;95525.97;4970590;28;20019;-71
2021/09/26 05:43:08;;;;;;;7.25;4.35;;;;;;;23.73;49.63;95535.47;4968490;28;20456;-70
2021/09/26 05:45:34;;;;;;;5.32;4.18;;;;;;;23.79;49.25;95523.06;4968948;28;20042;-70
2021/09/26 05:47:59;;;;;;;5.78;4.65;;;;;;;23.84;49.12;95511.06;4969333;28;20038;-71
2021/09/26 05:50:25;;;;;;;5.78;4.68;;;;;;;24.04;48.87;95523.22;4968768;28;20031;-71
2021/09/26 05:52:50;;;;;;;4.15;3.75;;;;;;;23.79;48.25;95468.75;4986162;28;20051;-71
2021/09/26 05:55:15;;;;;;;7.50;4.35;;;;;;;24.21;48.29;95512.78;4969527;28;20129;-71
2021/09/26 05:57:41;;;;;;;5.70;4.45;;;;;;;24.26;48.04;95515.94;4970295;28;20050;-71
2021/09/26 06:00:08;;;;;;;4.80;4.35;;;;;;;24.36;48.13;95531.53;4969260;28;20035;-71
2021/09/26 06:02:33;;;;;;;4.93;4.25;;;;;;;24.29;47.60;95517.88;4968870;28;20465;-70
2021/09/26 06:04:59;;;;;;;5.07;4.20;;;;;;;24.32;47.92;95527.22;4970821;28;20114;-70
2021/09/26 06:07:25;;;;;;;4.45;4.10;;;;;;;24.38;47.76;95534.66;4968945;28;20141;-71
2021/09/26 06:09:50;;;;;;;7.50;5.22;;;;;;;24.31;47.52;95525.63;4968081;28;20512;-71
2021/09/26 06:12:16;;;;;;;4.70;4.05;;;;;;;24.32;47.94;95536.16;4968467;28;20034;-71
2021/09/26 06:14:42;;;;;;;3.97;3.67;;;;;;;24.23;47.92;95533.00;4968569;28;20038;-70
2021/09/26 06:17:08;;;;;;;4.28;3.88;;;;;;;24.26;48.08;95540.41;4970850;28;20047;-71
2021/09/26 06:19:34;;;;;;;4.45;4.05;;;;;;;24.10;48.02;95534.50;4968253;28;20185;-71
2021/09/26 06:22:00;;;;;;;4.28;3.88;;;;;;;23.79;48.53;95550.22;4968864;28;20441;-71
2021/09/26 06:24:26;;;;;;;4.60;4.18;;;;;;;24.10;48.46;95553.50;4967948;28;20566;-71
2021/09/26 06:26:51;;;;;;;5.15;4.43;;;;;;;24.40;48.15;95555.22;4968775;28;20035;-71
2021/09/26 06:29:16;;;;;;;5.63;4.00;;;;;;;24.61;47.71;95556.06;4968207;28;20023;-71
2021/09/26 06:31:42;;;;;;;6.47;4.07;;;;;;;24.80;47.41;95552.25;4970739;28;20042;-71
2021/09/26 06:34:07;;;;;;;5.15;3.88;;;;;;;24.89;46.92;95532.84;4968476;28;20034;-71
2021/09/26 06:36:33;;;;;;;5.20;4.10;;;;;;;25.11;46.69;95547.28;4968915;28;20035;-71
2021/09/26 06:38:59;;;;;;;4.97;3.83;;;;;;;25.20;46.42;95546.91;4982479;28;20093;-70
2021/09/26 06:41:25;;;;;;;5.40;3.63;;;;;;;25.47;46.06;95555.44;4968194;28;20045;-72
2021/09/26 06:43:50;;;;;;;6.43;3.53;;;;;;;25.31;45.56;95504.88;4970261;28;20027;-72
2021/09/26 06:46:16;;;;;;;3.90;3.35;;;;;;;25.65;44.97;95535.19;4968668;28;20108;-70
2021/09/26 06:48:42;;;;;;;4.63;3.70;;;;;;;25.71;44.85;95551.94;4968203;28;20129;-74
2021/09/26 06:51:07;;;;;;;4.75;3.60;;;;;;;25.60;44.66;95532.09;4967406;28;20038;-72
2021/09/26 06:53:33;;;;;;;7.60;3.50;;;;;;;25.67;44.79;95546.47;4967665;28;20089;-72
2021/09/26 06:55:58;;;;;;;5.70;3.10;;;;;;;25.56;44.85;95539.50;4970402;28;20383;-72
2021/09/26 06:58:24;;;;;;;3.80;3.33;;;;;;;25.49;44.60;95534.03;4971940;28;20042;-72
2021/09/26 07:00:51;;;;;;;5.88;3.63;;;;;;;25.46;45.03;95545.72;4970581;28;20053;-71
2021/09/26 07:03:16;;;;;;;4.47;2.97;;;;;;;25.54;45.01;95542.63;4971855;28;20041;-71
2021/09/26 07:05:43;;;;;;;4.88;3.47;;;;;;;25.54;44.87;95533.63;4972111;28;20479;-70
2021/09/26 07:08:08;;;;;;;4.32;2.92;;;;;;;25.61;44.81;95537.16;4972223;28;20035;-71
2021/09/26 07:10:34;;;;;;;3.45;3.15;;;;;;;25.62;44.37;95524.31;4971583;28;20043;-71
2021/09/26 07:12:59;;;;;;;4.47;3.25;;;;;;;25.77;44.17;95542.22;4970168;28;20038;-71
2021/09/26 07:15:25;;;;;;;6.75;3.13;;;;;;;25.77;44.13;95527.81;4971711;28;20066;-71
2021/09/26 07:17:53;;;;;;;3.72;3.35;;;;;;;25.82;44.47;95532.84;4971662;28;20423;-71
2021/09/26 07:20:18;;;;;;;4.53;2.88;;;;;;;25.92;44.39;95538.28;4986452;28;20409;-71
2021/09/26 07:22:44;;;;;;;4.78;3.38;;;;;;;25.89;43.75;95535.56;4972209;28;20027;-72
2021/09/26 07:25:10;;;;;;;7.10;3.28;;;;;;;25.83;43.83;95523.50;4971161;28;20097;-71
2021/09/26 07:27:35;;;;;;;7.28;3.55;;;;;;;25.93;43.87;95526.22;4971479;28;20030;-71
2021/09/26 07:30:00;;;;;;;4.40;3.40;;;;;;;26.13;43.72;95533.94;4971230;28;20051;-71
2021/09/26 07:32:26;;;;;;;4.75;3.35;;;;;;;26.22;43.58;95528.84;4971683;28;20027;-71
2021/09/26 07:34:51;;;;;;;3.30;3.00;;;;;;;26.24;43.73;95514.81;4973446;28;20030;-70
2021/09/26 07:37:18;;;;;;;3.53;3.17;;;;;;;26.37;43.40;95524.88;4970075;28;20425;-71
2021/09/26 07:39:43;;;;;;;3.65;3.35;;;;;;;26.38;43.17;95512.81;4970544;28;20552;-72
2021/09/26 07:42:08;;;;;;;5.10;3.38;;;;;;;26.55;43.04;95515.88;4970899;28;20039;-71
2021/09/26 07:44:34;;;;;;;4.55;3.25;;;;;;;26.45;42.61;95501.09;4970995;28;20477;-71
2021/09/26 07:47:00;;;;;;;6.70;3.10;;;;;;;26.61;42.58;95515.03;4973348;28;20114;-72
2021/09/26 07:49:25;;;;;;;6.68;3.05;;;;;;;26.69;42.30;95511.09;4970591;28;20047;-71
2021/09/26 07:51:51;;;;;;;3.63;2.88;;;;;;;26.15;42.82;95521.44;4971122;28;20420;-72
2021/09/26 07:54:16;;;;;;;5.03;2.75;;;;;;;26.74;42.05;95520.81;4970044;28;20126;-72
2021/09/26 07:56:43;;;;;;;6.53;3.25;;;;;;;26.99;41.67;95511.69;4970924;28;20042;-72
2021/09/26 07:59:09;;;;;;;4.10;2.90;;;;;;;27.16;41.44;95514.31;4972392;28;20504;-72
2021/09/26 08:01:34;;;;;;;5.75;2.80;;;;;;;27.18;40.92;95514.72;4971402;28;20038;-72
2021/09/26 08:03:59;;;;;;;5.40;2.75;;;;;;;27.03;40.72;95496.84;4970147;28;20461;-72
2021/09/26 08:06:25;;;;;;;4.03;2.75;;;;;;;27.16;40.83;95497.94;4971522;28;20050;-71
2021/09/26 08:08:51;;;;;;;5.00;2.83;;;;;;;27.25;40.61;95510.38;4970001;28;20405;-72
2021/09/26 08:11:16;;;;;;;5.88;2.92;;;;;;;27.15;40.13;95499.13;4970469;28;20042;-73
2021/09/26 08:13:42;;;;;;;4.03;2.80;;;;;;;27.25;40.33;95493.97;4972406;28;20031;-72
2021/09/26 08:16:07;;;;;;;5.30;2.80;;;;;;;27.16;40.36;95506.13;4985486;28;20086;-72
2021/09/26 08:18:33;;;;;;;7.82;2.60;;;;;;;27.35;40.36;95515.72;4970610;28;20043;-72
2021/09/26 08:21:00;;;;;;;3.03;2.70;;;;;;;27.46;40.33;95510.94;4970582;28;20039;-72
2021/09/26 08:23:26;;;;;;;4.40;2.55;;;;;;;27.66;40.09;95519.34;4970860;28;20062;-69
2021/09/26 08:25:51;;;;;;;3.95;3.00;;;;;;;27.56;39.84;95505.78;4972745;28;20110;-70
2021/09/26 08:28:18;;;;;;;6.57;2.97;;;;;;;27.77;39.98;95513.03;4970423;28;20045;-75
2021/09/26 08:30:44;;;;;;;6.78;3.05;;;;;;;27.53;39.90;95506.59;4970149;28;20035;-72
2021/09/26 08:33:10;;;;;;;7.63;3.25;;;;;;;27.68;39.60;95506.03;4970147;28;20035;-70
2021/09/26 08:35:35;;;;;;;5.13;2.80;;;;;;;27.75;39.24;95512.69;4970247;28;20062;-70
2021/09/26 08:38:01;;;;;;;6.35;2.83;;;;;;;27.80;39.55;95507.53;4972460;28;20074;-72
2021/09/26 08:40:26;;;;;;;6.55;2.65;;;;;;;27.96;38.88;95488.63;4969451;28;20105;-72
2021/09/26 08:42:52;;;;;;;5.63;2.60;;;;;;;28.50;38.39;95518.84;4969853;28;20043;-68
2021/09/26 08:45:19;;;;;;;5.78;2.80;;;;;;;28.64;37.50;95517.88;4970668;28;20047;-74
2021/09/26 08:47:46;;;;;;;5.65;3.00;;;;;;;29.01;37.36;95536.16;4970795;28;20035;-68
2021/09/26 08:50:15;;;;;;;4.65;3.03;;;;;;;29.62;36.73;95531.69;4972279;28;20038;-73
2021/09/26 08:52:41;;;;;;;4.05;2.42;;;;;;;29.68;35.28;95462.25;4965388;28;20030;-72
2021/09/26 08:55:08;;;;;;;6.47;2.40;;;;;;;30.28;34.03;95492.47;4969923;28;20047;-78
2021/09/26 08:57:33;;;;;;;4.13;2.40;;;;;;;30.53;33.60;95497.44;4970265;28;20066;-74
2021/09/26 08:59:59;;;;;;;4.70;3.10;;;;;;;30.90;33.04;95496.25;4966252;28;20046;-72
2021/09/26 09:02:25;;;;;;;3.20;2.28;;;;;;;31.17;32.01;95503.47;4969140;28;20034;-76
2021/09/26 09:04:50;;;;;;;3.30;2.42;;;;;;;31.49;32.16;95500.75;4971681;28;20029;-72
2021/09/26 09:07:16;;;;;;;7.63;2.70;;;;;;;31.74;31.57;95491.88;4970030;28;20401;-77
2021/09/26 09:09:54;;;;;;;7.38;2.50;;;;;;;31.81;31.59;95518.44;4968967;28;20440;-77
2021/09/26 09:12:31;;;;;;;4.63;2.30;;;;;;;32.32;31.62;95529.63;4970095;28;20125;-79
2021/09/26 09:14:58;;;;;;;7.47;2.70;;;;;;;32.52;31.08;95535.75;4970179;28;20094;-75
2021/09/26 09:17:38;;;;;;;6.07;2.38;;;;;;;32.69;31.34;95532.91;4970674;28;20628;-74
2021/09/26 09:20:23;;;;;;;4.43;2.13;;;;;;;33.03;29.99;95535.09;4972889;28;20081;-80
2021/09/26 09:22:53;;;;;;;4.55;2.35;;;;;;;33.04;29.71;95523.59;4986196;28;20062;-80
2021/09/26 09:25:32;;;;;;;4.72;2.60;;;;;;;32.87;30.22;95544.19;4968164;28;20430;-75
2021/09/26 09:27:58;;;;;;;3.22;2.20;;;;;;;32.60;29.63;95501.31;4985241;28;20076;-80
2021/09/26 09:30:40;;;;;;;3.88;2.20;;;;;;;32.99;29.29;95535.19;4969411;28;20539;-72
2021/09/26 09:33:07;;;;;;;5.13;2.20;;;;;;;33.14;29.24;95535.50;4970084;28;20050;-78
2021/09/26 09:35:41;;;;;;;4.75;2.40;;;;;;;33.02;29.52;95545.34;4970532;28;20529;-72
2021/09/26 09:38:07;;;;;;;7.93;2.38;;;;;;;32.72;29.93;95548.59;4971253;28;20035;-75
2021/09/26 09:40:35;;;;;;;4.32;2.10;;;;;;;32.98;29.70;95541.13;4968013;28;20031;-84
2021/09/26 09:43:00;;;;;;;4.95;2.17;;;;;;;32.99;29.01;95535.19;4969520;28;20493;-84
2021/09/26 09:45:36;;;;;;;2.97;2.67;;;;;;;33.28;28.52;95548.09;4984546;28;20189;-71
2021/09/26 09:48:08;;;;;;;3.25;2.05;;;;;;;33.26;28.33;95547.72;4969391;28;20042;-69
2021/09/26 09:50:33;;;;;;;3.72;1.80;;;;;;;33.45;28.32;95546.00;4969531;28;20476;-74
2021/09/26 09:52:59;;;;;;;3.30;2.33;;;;;;;33.54;28.26;95538.59;4971221;28;20054;-64
2021/09/26 09:55:26;;;;;;;3.80;2.05;;;;;;;33.36;28.21;95503.28;4969286;28;20053;-68
2021/09/26 09:57:52;;;;;;;3.22;1.80;;;;;;;33.62;28.11;95539.88;4969437;28;20027;-71
2021/09/26 10:00:22;;;;;;;27.05;21.35;;;;;;;33.65;28.42;95541.00;4969047;28;20035;-67
2021/09/26 10:02:47;;;;;;;171.25;155.38;;;;;;;33.50;28.65;95532.41;4968680;28;20238;-70
2021/09/26 10:05:33;;;;;;;40.22;36.38;;;;;;;33.58;28.65;95532.97;4970811;28;20381;-72
2021/09/26 10:07:59;;;;;;;102.47;92.53;;;;;;;33.68;28.11;95539.31;4969282;28;20046;-62
2021/09/26 10:10:32;;;;;;;28.60;25.90;;;;;;;32.74;28.85;95544.16;4967599;28;20039;-66
2021/09/26 10:13:12;;;;;;;42.33;37.90;;;;;;;32.92;28.42;95557.44;4983307;28;20158;-66
2021/09/26 10:15:39;;;;;;;11.05;9.65;;;;;;;32.80;28.13;95547.91;4968549;28;20090;-67
2021/09/26 10:18:04;;;;;;;5.28;2.60;;;;;;;32.98;28.17;95544.66;4968628;28;20573;-65
2021/09/26 10:20:31;;;;;;;25.58;23.05;;;;;;;33.20;28.51;95566.81;4967811;28;20121;-65
2021/09/26 10:22:57;;;;;;;15.05;13.57;;;;;;;33.12;28.42;95573.78;4970066;28;20390;-65
2021/09/26 10:25:23;;;;;;;10.07;6.57;;;;;;;33.41;27.92;95568.13;4968111;28;20055;-64
2021/09/26 10:27:51;;;;;;;7.50;6.88;;;;;;;33.78;27.86;95563.00;4968472;28;20231;-66
2021/09/26 10:30:17;;;;;;;5.55;2.85;;;;;;;33.96;27.69;95554.16;4967776;28;20047;-70
2021/09/26 10:32:44;;;;;;;7.00;5.95;;;;;;;34.14;27.29;95571.66;4970058;28;20050;-68
2021/09/26 10:35:10;;;;;;;7.00;3.33;;;;;;;34.11;27.25;95560.75;4974355;28;20037;-66
2021/09/26 10:37:36;;;;;;;5.13;2.28;;;;;;;34.23;27.25;95561.91;4975215;28;20125;-66
2021/09/26 10:40:04;;;;;;;6.63;5.32;;;;;;;34.09;27.28;95547.41;4971500;28;20583;-67
2021/09/26 10:42:35;;;;;;;8.75;3.38;;;;;;;34.13;27.50;95544.50;4971018;28;20056;-68
2021/09/26 10:45:02;;;;;;;;;;;;;;;34.08;27.26;95554.09;4972588;28;20105;-69
2021/09/26 10:47:33;;;;;;;4.95;3.80;;;;;;;34.00;27.38;95555.59;4972082;28;20572;-67
2021/09/26 10:50:01;;;;;;;3.90;2.28;;;;;;;33.99;27.80;95558.78;4973782;28;20035;-68
2021/09/26 10:52:33;;;;;;;3.70;2.78;;;;;;;33.94;27.96;95542.81;4971916;28;20050;-66
2021/09/26 10:55:30;;;;;;;5.57;2.67;;;;;;;33.72;27.34;95548.25;4971271;28;20141;-66
2021/09/26 10:58:05;;;;;;;5.65;2.92;;;;;;;33.18;28.87;95547.19;4967010;28;20098;-66
2021/09/26 11:00:51;;;;;;;8.02;3.03;;;;;;;32.35;29.49;95550.78;4963349;28;20058;-67
2021/09/26 11:03:42;;;;;;;5.55;2.92;;;;;;;31.74;30.89;95546.09;4969405;28;20039;-68
2021/09/26 11:06:26;;;;;;;11.57;3.10;;;;;;;31.73;29.74;95552.78;4975733;28;20043;-66
2021/09/26 11:09:00;;;;;;;4.53;2.85;;;;;;;30.34;31.97;95562.13;4969979;28;20047;-67
2021/09/26 11:11:46;;;;;;;5.13;2.25;;;;;;;31.29;31.27;95550.31;4970998;28;20027;-68
2021/09/26 11:14:13;;;;;;;3.92;2.63;;;;;;;31.83;29.63;95543.53;4972842;28;20019;-68
2021/09/26 11:16:52;;;;;;;4.65;2.50;;;;;;;31.17;30.60;95539.19;4971151;28;20045;-65
2021/09/26 11:19:18;;;;;;;6.25;3.10;;;;;;;31.71;30.21;95533.97;4970409;28;20055;-64
2021/09/26 11:21:44;;;;;;;7.13;2.65;;;;;;;31.61;30.01;95539.75;4968917;28;20074;-68
2021/09/26 11:24:11;;;;;;;4.13;2.60;;;;;;;30.64;30.75;95535.66;4972117;28;20073;-72
2021/09/26 11:27:03;;;;;;;6.10;2.42;;;;;;;29.58;32.38;95534.50;4972142;28;20138;-74
2021/09/26 11:29:37;;;;;;;8.18;2.80;;;;;;;30.06;31.55;95524.25;4971568;28;20034;-77
2021/09/26 11:32:05;;;;;;;5.80;2.38;;;;;;;30.72;30.14;95518.63;4989165;28;20023;-77
2021/09/26 11:34:35;;;;;;;4.22;2.40;;;;;;;30.75;30.01;95515.03;4972143;28;20039;-80
2021/09/26 11:37:00;;;;;;;8.07;2.30;;;;;;;31.19;29.68;95509.34;4971708;28;20534;-69
2021/09/26 11:39:30;;;;;;;9.93;2.63;;;;;;;31.13;29.52;95472.59;4970366;28;20090;-67